createdAt,value
2019-02-08T00:00:30.098Z,25.85
2019-02-08T00:02:37.810Z,27.85
2019-02-08T00:04:44.033Z,24.90
2019-02-08T00:06:51.921Z,28.85
2019-02-08T00:08:58.884Z,29.05
2019-02-08T00:11:05.822Z,31.90
2019-02-08T00:13:11.725Z,25.62
2019-02-08T00:15:19.542Z,27.35
2019-02-08T00:17:25.644Z,24.55
2019-02-08T00:19:31.469Z,23.65
2019-02-08T00:21:38.401Z,23.60
2019-02-08T00:23:45.727Z,30.10
2019-02-08T00:25:54.758Z,22.82
2019-02-08T00:28:00.388Z,28.12
2019-02-08T00:30:11.412Z,22.05
2019-02-08T00:32:17.730Z,27.60
2019-02-08T00:34:23.246Z,23.40
2019-02-08T00:36:34.724Z,21.85
2019-02-08T00:38:40.641Z,22.65
2019-02-08T00:40:46.129Z,36.23
2019-02-08T00:42:57.658Z,23.47
2019-02-08T00:45:03.279Z,31.73
2019-02-08T00:47:10.226Z,24.70
2019-02-08T00:49:17.313Z,27.20
2019-02-08T00:51:23.183Z,26.15
2019-02-08T00:53:33.445Z,27.87
2019-02-08T00:55:40.061Z,27.17
2019-02-08T00:57:45.669Z,21.25
2019-02-08T00:59:53.266Z,25.10
2019-02-08T01:01:58.960Z,28.92
2019-02-08T01:04:05.098Z,26.77
2019-02-08T01:06:10.686Z,21.25
2019-02-08T01:08:16.870Z,21.27
2019-02-08T01:10:28.173Z,24.52
2019-02-08T01:12:34.981Z,25.12
2019-02-08T01:14:40.669Z,24.67
2019-02-08T01:16:46.159Z,24.92
2019-02-08T01:18:51.750Z,27.00
2019-02-08T01:20:57.196Z,22.60
2019-02-08T01:23:03.358Z,26.10
2019-02-08T01:25:11.912Z,25.05
2019-02-08T01:27:20.586Z,20.52
2019-02-08T01:29:26.133Z,23.70
2019-02-08T01:31:31.657Z,34.23
2019-02-08T01:33:40.106Z,23.50
2019-02-08T01:35:45.656Z,23.30
2019-02-08T01:37:52.305Z,23.40
2019-02-08T01:39:58.418Z,32.35
2019-02-08T01:42:04.141Z,22.22
2019-02-08T01:44:09.658Z,22.77
2019-02-08T01:46:15.260Z,31.05
2019-02-08T01:48:20.993Z,25.08
2019-02-08T01:50:27.869Z,27.98
2019-02-08T01:52:35.238Z,30.82
2019-02-08T01:54:40.697Z,20.77
2019-02-08T01:56:49.758Z,19.98
2019-02-08T01:58:55.276Z,25.77
2019-02-08T02:01:00.790Z,23.83
2019-02-08T02:03:07.348Z,21.95
2019-02-08T02:05:14.946Z,21.20
2019-02-08T02:07:20.542Z,22.27
2019-02-08T02:09:26.043Z,23.60
2019-02-08T02:11:31.438Z,22.55
2019-02-08T02:13:37.262Z,24.67
2019-02-08T02:15:42.773Z,25.10
2019-02-08T02:17:54.461Z,20.23
2019-02-08T02:19:59.961Z,25.68
2019-02-08T02:22:07.797Z,24.55
2019-02-08T02:24:13.832Z,17.48
2019-02-08T02:26:21.009Z,21.30
2019-02-08T02:28:27.094Z,20.60
2019-02-08T02:30:33.978Z,20.15
2019-02-08T02:32:39.513Z,23.45
2019-02-08T02:34:44.992Z,30.50
2019-02-08T02:36:52.561Z,27.13
2019-02-08T02:38:58.000Z,20.23
2019-02-08T02:41:03.436Z,15.80
2019-02-08T02:43:10.490Z,24.90
2019-02-08T02:45:21.720Z,18.55
2019-02-08T02:47:27.198Z,17.30
2019-02-08T02:49:32.665Z,22.85
2019-02-08T02:51:38.197Z,18.27
2019-02-08T02:53:43.903Z,20.70
2019-02-08T02:55:50.489Z,23.05
2019-02-08T02:57:56.176Z,23.52
2019-02-08T03:00:01.924Z,22.55
2019-02-08T03:02:07.405Z,19.40
2019-02-08T03:04:12.958Z,20.02
2019-02-08T03:06:20.883Z,18.48
2019-02-08T03:08:28.629Z,20.23
2019-02-08T03:10:34.092Z,20.65
2019-02-08T03:12:41.574Z,20.68
2019-02-08T03:14:55.914Z,18.80
2019-02-08T03:17:01.556Z,24.57
2019-02-08T03:19:07.546Z,19.40
2019-02-08T03:21:13.557Z,21.42
2019-02-08T03:23:19.069Z,21.10
2019-02-08T03:25:25.638Z,23.75
2019-02-08T03:27:33.306Z,23.70
2019-02-08T03:29:38.859Z,19.80
2019-02-08T03:31:44.274Z,19.40
2019-02-08T03:33:49.886Z,18.32
2019-02-08T03:35:56.750Z,22.37
2019-02-08T03:38:02.899Z,21.70
2019-02-08T03:40:11.741Z,19.87
2019-02-08T03:42:17.153Z,29.63
2019-02-08T03:44:24.890Z,17.32
2019-02-08T03:46:32.937Z,16.42
2019-02-08T03:48:38.381Z,20.57
2019-02-08T03:50:43.982Z,18.02
2019-02-08T03:52:52.249Z,19.67
2019-02-08T03:54:57.715Z,15.58
2019-02-08T03:57:03.325Z,22.07
2019-02-08T03:59:09.587Z,15.68
2019-02-08T04:01:15.626Z,20.92
2019-02-08T04:03:22.103Z,17.20
2019-02-08T04:05:27.867Z,18.80
2019-02-08T04:07:33.393Z,18.48
2019-02-08T04:09:38.929Z,19.05
2019-02-08T04:11:44.554Z,22.52
2019-02-08T04:13:49.979Z,21.30
2019-02-08T04:15:55.438Z,19.52
2019-02-08T04:18:03.244Z,15.35
2019-02-08T04:20:09.935Z,15.28
2019-02-08T04:22:15.721Z,16.90
2019-02-08T04:24:29.566Z,22.17
2019-02-08T04:26:28.773Z,19.55
2019-02-08T04:28:34.177Z,24.57
2019-02-08T04:30:40.337Z,18.52
2019-02-08T04:32:45.765Z,16.93
2019-02-08T04:34:52.462Z,15.70
2019-02-08T04:36:59.957Z,20.12
2019-02-08T04:39:08.249Z,23.20
2019-02-08T04:41:13.670Z,18.60
2019-02-08T04:43:25.124Z,19.85
2019-02-08T04:45:31.065Z,15.40
2019-02-08T04:47:36.853Z,12.70
2019-02-08T04:49:43.338Z,18.10
2019-02-08T04:51:49.031Z,16.37
2019-02-08T04:53:54.805Z,17.90
2019-02-08T04:56:00.278Z,17.92
2019-02-08T04:58:06.174Z,21.20
2019-02-08T05:00:18.615Z,17.12
2019-02-08T05:02:25.815Z,16.23
2019-02-08T05:04:31.313Z,19.67
2019-02-08T05:06:36.979Z,16.77
2019-02-08T05:08:42.436Z,17.73
2019-02-08T05:10:47.974Z,20.77
2019-02-08T05:12:53.900Z,18.77
2019-02-08T05:14:59.834Z,18.73
2019-02-08T05:17:06.885Z,19.80
2019-02-08T05:19:12.526Z,16.73
2019-02-08T05:21:18.268Z,14.73
2019-02-08T05:23:24.206Z,15.20
2019-02-08T05:25:30.122Z,20.35
2019-02-08T05:27:36.215Z,22.32
2019-02-08T05:29:41.721Z,14.33
2019-02-08T05:31:47.651Z,16.25
2019-02-08T05:33:53.268Z,12.93
2019-02-08T05:36:02.055Z,19.57
2019-02-08T05:38:11.178Z,13.50
2019-02-08T05:40:19.166Z,13.25
2019-02-08T05:42:26.445Z,16.70
2019-02-08T05:44:32.261Z,20.80
2019-02-08T05:46:37.769Z,19.07
2019-02-08T05:48:43.270Z,14.07
2019-02-08T05:50:48.983Z,21.02
2019-02-08T05:52:54.493Z,17.62
2019-02-08T05:55:00.273Z,15.78
2019-02-08T05:57:05.809Z,15.98
2019-02-08T05:59:11.470Z,18.87
2019-02-08T06:01:17.211Z,18.07
2019-02-08T06:03:24.183Z,16.00
2019-02-08T06:05:29.673Z,16.07
2019-02-08T06:07:35.777Z,18.15
2019-02-08T06:09:41.277Z,16.87
2019-02-08T06:11:46.910Z,21.68
2019-02-08T06:13:52.826Z,16.20
2019-02-08T06:15:58.337Z,20.10
2019-02-08T06:18:09.918Z,20.55
2019-02-08T06:20:19.931Z,18.80
2019-02-08T06:22:25.702Z,19.20
2019-02-08T06:24:31.879Z,20.25
2019-02-08T06:26:37.540Z,16.62
2019-02-08T06:28:45.140Z,20.95
2019-02-08T06:30:50.843Z,16.40
2019-02-08T06:32:56.394Z,34.60
2019-02-08T06:35:01.931Z,24.25
2019-02-08T06:37:08.133Z,35.98
2019-02-08T06:39:17.970Z,43.87
2019-02-08T06:41:23.766Z,38.00
2019-02-08T06:43:29.290Z,29.87
2019-02-08T06:45:35.426Z,29.30
2019-02-08T06:47:43.529Z,26.15
2019-02-08T06:49:50.741Z,23.12
2019-02-08T06:51:58.626Z,23.80
2019-02-08T06:54:05.192Z,26.15
2019-02-08T06:56:30.930Z,29.27
2019-02-08T06:58:51.370Z,29.20
2019-02-08T07:01:19.573Z,26.00
2019-02-08T07:03:50.130Z,22.02
2019-02-08T07:06:13.433Z,19.98
2019-02-08T07:08:23.745Z,24.55
2019-02-08T07:10:46.325Z,19.98
2019-02-08T07:13:23.377Z,20.08
2019-02-08T07:15:37.036Z,17.98
2019-02-08T07:18:15.980Z,21.25
2019-02-08T07:20:55.777Z,21.02
2019-02-08T07:23:35.253Z,20.90
2019-02-08T07:25:59.019Z,18.20
2019-02-08T07:28:26.735Z,17.20
2019-02-08T07:31:18.865Z,16.97
2019-02-08T07:33:32.130Z,16.50
2019-02-08T07:35:56.245Z,19.20
2019-02-08T07:38:23.189Z,17.12
2019-02-08T07:40:45.933Z,15.55
2019-02-08T07:43:17.245Z,14.28
2019-02-08T07:45:32.789Z,18.50
2019-02-08T07:48:09.393Z,16.45
2019-02-08T07:50:25.252Z,16.65
2019-02-08T07:52:44.994Z,15.48
2019-02-08T07:54:57.716Z,13.35
2019-02-08T07:57:21.149Z,19.52
2019-02-08T07:59:47.138Z,11.45
2019-02-08T08:02:14.458Z,15.68
2019-02-08T08:04:39.041Z,20.25
2019-02-08T08:07:18.849Z,16.55
2019-02-08T08:09:46.938Z,16.15
2019-02-08T08:12:11.360Z,11.57
2019-02-08T08:14:36.380Z,24.25
2019-02-08T08:17:00.735Z,15.08
2019-02-08T08:19:35.564Z,15.00
2019-02-08T08:22:07.062Z,15.32
2019-02-08T08:24:33.620Z,16.48
2019-02-08T08:26:54.353Z,12.78
2019-02-08T08:29:22.170Z,12.53
2019-02-08T08:31:46.045Z,13.18
2019-02-08T08:34:04.167Z,15.85
2019-02-08T08:36:51.717Z,13.18
2019-02-08T08:39:59.330Z,20.85
2019-02-08T08:42:37.021Z,17.45
2019-02-08T08:45:26.472Z,14.55
2019-02-08T08:48:09.527Z,14.38
2019-02-08T08:50:58.403Z,11.80
2019-02-08T08:53:52.957Z,25.48
2019-02-08T08:56:48.324Z,14.80
2019-02-08T08:59:32.530Z,16.57
2019-02-08T09:01:55.579Z,13.50
2019-02-08T09:04:22.888Z,16.23
2019-02-08T09:07:16.270Z,14.83
2019-02-08T09:10:16.080Z,14.95
2019-02-08T09:12:53.521Z,14.53
2019-02-08T09:15:39.374Z,14.87
2019-02-08T09:18:31.170Z,11.97
2019-02-08T09:21:13.058Z,14.47
2019-02-08T09:24:06.546Z,12.07
2019-02-08T09:26:34.550Z,10.00
2019-02-08T09:29:08.868Z,15.27
2019-02-08T09:31:55.117Z,12.47
2019-02-08T09:35:00.513Z,11.10
2019-02-08T09:37:48.481Z,14.27
2019-02-08T09:40:36.305Z,11.37
2019-02-08T09:43:17.957Z,10.93
2019-02-08T09:46:18.155Z,12.60
2019-02-08T09:48:58.061Z,13.40
2019-02-08T09:51:47.408Z,11.73
2019-02-08T09:54:35.952Z,11.83
2019-02-08T09:57:02.729Z,16.80
2019-02-08T09:59:53.733Z,22.40
2019-02-08T10:02:34.673Z,17.33
2019-02-08T10:05:39.553Z,17.13
2019-02-08T10:08:40.462Z,19.80
2019-02-08T10:11:12.448Z,16.37
2019-02-08T10:13:58.350Z,19.23
2019-02-08T10:16:47.917Z,16.57
2019-02-08T10:19:37.118Z,16.30
2019-02-08T10:22:10.094Z,16.90
2019-02-08T10:25:11.069Z,23.53
2019-02-08T10:27:51.266Z,14.80
2019-02-08T10:30:56.638Z,14.90
2019-02-08T10:34:00.997Z,15.93
2019-02-08T10:36:55.505Z,16.23
2019-02-08T10:39:38.588Z,15.20
2019-02-08T10:42:29.757Z,17.33
2019-02-08T10:45:17.429Z,15.70
2019-02-08T10:48:04.225Z,18.50
2019-02-08T10:50:48.442Z,15.57
2019-02-08T10:53:23.669Z,19.43
2019-02-08T10:56:15.073Z,20.00
2019-02-08T10:58:54.341Z,16.37
2019-02-08T11:01:41.710Z,15.80
2019-02-08T11:04:27.140Z,15.10
2019-02-08T11:07:14.385Z,13.17
2019-02-08T11:10:14.661Z,13.90
2019-02-08T11:12:55.461Z,18.83
2019-02-08T11:15:42.341Z,20.00
2019-02-08T11:18:34.090Z,16.43
2019-02-08T11:20:41.497Z,13.10
2019-02-08T11:22:47.113Z,15.93
2019-02-08T11:24:52.249Z,19.80
2019-02-08T11:27:03.800Z,14.93
2019-02-08T11:29:09.434Z,18.87
2019-02-08T11:31:14.793Z,15.90
2019-02-08T11:33:20.055Z,20.13
2019-02-08T11:35:25.693Z,21.90
2019-02-08T11:37:31.099Z,16.10
2019-02-08T11:39:36.282Z,15.97
2019-02-08T11:41:41.525Z,16.73
2019-02-08T11:43:46.701Z,22.10
2019-02-08T11:45:52.374Z,19.87
2019-02-08T11:47:57.678Z,22.30
2019-02-08T11:50:02.858Z,16.30
2019-02-08T11:52:11.026Z,23.47
2019-02-08T11:54:17.070Z,18.20
2019-02-08T11:56:29.750Z,18.90
2019-02-08T11:58:33.187Z,14.80
2019-02-08T12:00:42.149Z,17.20
2019-02-08T12:02:47.693Z,22.43
2019-02-08T12:04:56.009Z,20.40
2019-02-08T12:07:01.457Z,14.60
2019-02-08T12:09:14.746Z,15.77
2019-02-08T12:11:19.992Z,14.93
2019-02-08T12:13:25.485Z,14.70
2019-02-08T12:15:32.785Z,10.87
2019-02-08T12:17:38.084Z,16.53
2019-02-08T12:19:43.692Z,14.83
2019-02-08T12:21:49.520Z,11.83
2019-02-08T12:23:56.030Z,17.40
2019-02-08T12:26:01.640Z,19.80
2019-02-08T12:28:07.766Z,14.90
2019-02-08T12:30:19.165Z,15.38
2019-02-08T12:32:26.234Z,13.20
2019-02-08T12:34:32.302Z,18.67
2019-02-08T12:36:40.344Z,15.68
2019-02-08T12:38:46.070Z,14.45
2019-02-08T12:40:51.520Z,14.40
2019-02-08T12:42:59.038Z,9.70
2019-02-08T12:45:09.030Z,10.20
2019-02-08T12:47:14.452Z,14.03
2019-02-08T12:49:19.873Z,11.33
2019-02-08T12:51:25.329Z,13.55
2019-02-08T12:53:30.486Z,14.50
2019-02-08T12:55:36.890Z,16.50
2019-02-08T12:57:42.585Z,13.23
2019-02-08T12:59:47.908Z,9.47
2019-02-08T13:01:54.257Z,11.20
2019-02-08T13:03:59.829Z,8.70
2019-02-08T13:06:05.089Z,23.97
2019-02-08T13:08:10.724Z,11.33
2019-02-08T13:10:18.637Z,9.10
2019-02-08T13:12:24.393Z,9.17
2019-02-08T13:14:30.041Z,9.70
2019-02-08T13:16:35.165Z,10.07
2019-02-08T13:18:40.453Z,10.23
2019-02-08T13:20:46.817Z,13.77
2019-02-08T13:22:52.262Z,11.40
2019-02-08T13:24:57.564Z,10.00
2019-02-08T13:27:03.486Z,11.53
2019-02-08T13:29:08.771Z,11.73
2019-02-08T13:31:13.921Z,11.60
2019-02-08T13:33:19.725Z,10.50
2019-02-08T13:35:24.863Z,11.20
2019-02-08T13:37:31.369Z,14.70
2019-02-08T13:39:38.961Z,11.23
2019-02-08T13:41:44.266Z,13.60
2019-02-08T13:43:49.521Z,12.90
2019-02-08T13:45:55.757Z,13.90
2019-02-08T13:48:01.104Z,12.40
2019-02-08T13:50:11.969Z,12.70
2019-02-08T13:52:17.157Z,16.77
2019-02-08T13:54:22.432Z,15.70
2019-02-08T13:56:27.904Z,17.87
2019-02-08T13:58:33.317Z,12.97
2019-02-08T14:00:38.965Z,15.30
2019-02-08T14:02:44.215Z,17.80
2019-02-08T14:04:49.416Z,14.60
2019-02-08T14:06:54.640Z,16.70
2019-02-08T14:08:59.798Z,14.30
2019-02-08T14:11:05.022Z,17.37
2019-02-08T14:13:10.485Z,14.93
2019-02-08T14:15:16.994Z,15.58
2019-02-08T14:17:23.961Z,14.70
2019-02-08T14:19:29.572Z,15.23
2019-02-08T14:21:35.138Z,18.25
2019-02-08T14:23:40.777Z,12.40
2019-02-08T14:25:46.296Z,15.48
2019-02-08T14:27:51.953Z,16.05
2019-02-08T14:30:02.861Z,19.57
2019-02-08T14:32:08.547Z,15.30
2019-02-08T14:34:13.992Z,17.37
2019-02-08T14:36:26.537Z,19.15
2019-02-08T14:38:32.029Z,16.40
2019-02-08T14:40:37.549Z,11.90
2019-02-08T14:42:54.133Z,17.77
2019-02-08T14:44:59.654Z,17.97
2019-02-08T14:47:05.077Z,14.15
2019-02-08T14:49:10.589Z,14.13
2019-02-08T14:51:16.026Z,18.45
2019-02-08T14:53:21.563Z,18.35
2019-02-08T14:55:29.356Z,16.80
2019-02-08T14:57:34.782Z,18.62
2019-02-08T14:59:40.462Z,17.37
2019-02-08T15:01:46.096Z,18.35
2019-02-08T15:03:51.566Z,19.40
2019-02-08T15:05:58.130Z,17.90
2019-02-08T15:08:11.190Z,17.50
2019-02-08T15:10:22.577Z,34.10
2019-02-08T15:12:28.585Z,15.70
2019-02-08T15:14:34.006Z,17.57
2019-02-08T15:16:39.496Z,15.88
2019-02-08T15:18:45.774Z,12.82
2019-02-08T15:20:51.933Z,15.43
2019-02-08T15:22:57.445Z,19.15
2019-02-08T15:25:02.943Z,17.57
2019-02-08T15:27:14.478Z,13.38
2019-02-08T15:29:20.082Z,14.00
2019-02-08T15:31:25.581Z,16.48
2019-02-08T15:33:37.166Z,15.00
2019-02-08T15:35:43.417Z,16.77
2019-02-08T15:37:49.955Z,21.12
2019-02-08T15:40:06.611Z,17.07
2019-02-08T15:42:12.129Z,16.77
2019-02-08T15:44:17.848Z,18.05
2019-02-08T15:46:23.336Z,21.40
2019-02-08T15:48:28.842Z,18.20
2019-02-08T15:50:34.465Z,20.50
2019-02-08T15:52:49.574Z,16.97
2019-02-08T15:54:55.055Z,16.73
2019-02-08T15:59:22.547Z,18.05
2019-02-08T16:01:29.580Z,17.77
2019-02-08T16:03:34.998Z,18.07
2019-02-08T16:05:40.422Z,18.87
2019-02-08T16:07:46.029Z,20.57
2019-02-08T16:09:51.526Z,19.17
2019-02-08T16:11:56.953Z,19.02
2019-02-08T16:14:02.385Z,12.50
2019-02-08T16:16:08.545Z,16.73
2019-02-08T16:18:13.965Z,19.48
2019-02-08T16:20:21.429Z,19.37
2019-02-08T16:22:27.535Z,18.62
2019-02-08T16:24:33.134Z,14.85
2019-02-08T16:26:38.829Z,17.85
2019-02-08T16:28:44.573Z,24.37
2019-02-08T16:30:50.005Z,19.67
2019-02-08T16:32:57.291Z,17.55
2019-02-08T16:35:02.765Z,19.60
2019-02-08T16:37:08.428Z,18.95
2019-02-08T16:39:14.255Z,18.60
2019-02-08T16:41:23.649Z,16.73
2019-02-08T16:43:29.177Z,14.60
2019-02-08T16:45:40.913Z,22.75
2019-02-08T16:47:46.509Z,17.82
2019-02-08T16:49:52.054Z,15.85
2019-02-08T16:51:57.506Z,15.35
2019-02-08T16:54:02.939Z,19.55
2019-02-08T16:56:08.570Z,22.25
2019-02-08T16:58:17.237Z,22.02
2019-02-08T17:00:28.282Z,22.75
2019-02-08T17:02:33.809Z,22.27
2019-02-08T17:04:42.240Z,17.10
2019-02-08T17:06:48.345Z,17.17
2019-02-08T17:08:54.294Z,16.65
2019-02-08T17:11:05.541Z,18.45
2019-02-08T17:13:11.062Z,15.93
2019-02-08T17:15:19.695Z,14.53
2019-02-08T17:17:28.042Z,17.82
2019-02-08T17:19:33.733Z,27.42
2019-02-08T17:21:39.210Z,23.92
2019-02-08T17:23:44.943Z,20.32
2019-02-08T17:25:50.377Z,28.42
2019-02-08T17:27:57.185Z,21.87
2019-02-08T17:30:08.576Z,22.85
2019-02-08T17:32:14.732Z,24.98
2019-02-08T17:34:23.598Z,21.73
2019-02-08T17:36:30.031Z,21.37
2019-02-08T17:38:35.737Z,22.25
2019-02-08T17:40:43.817Z,23.73
2019-02-08T17:42:49.849Z,24.05
2019-02-08T17:44:56.411Z,23.57
2019-02-08T17:47:01.844Z,19.62
2019-02-08T17:49:07.262Z,21.48
2019-02-08T17:51:12.690Z,25.43
2019-02-08T17:53:18.142Z,20.30
2019-02-08T17:55:24.992Z,29.05
2019-02-08T17:57:31.653Z,27.70
2019-02-08T17:59:40.845Z,22.07
2019-02-08T18:01:46.313Z,26.12
2019-02-08T18:03:52.013Z,24.23
2019-02-08T18:06:00.714Z,23.80
2019-02-08T18:08:06.333Z,21.82
2019-02-08T18:10:15.458Z,25.90
2019-02-08T18:12:21.148Z,23.75
2019-02-08T18:14:26.690Z,25.12
2019-02-08T18:16:32.059Z,32.80
2019-02-08T18:18:37.473Z,24.10
2019-02-08T18:20:45.157Z,25.90
2019-02-08T18:22:50.961Z,28.55
2019-02-08T18:24:56.457Z,26.33
2019-02-08T18:27:01.955Z,24.02
2019-02-08T18:29:07.390Z,25.75
2019-02-08T18:31:14.077Z,31.55
2019-02-08T18:33:19.674Z,36.05
2019-02-08T18:35:25.088Z,24.12
2019-02-08T18:37:30.509Z,27.55
2019-02-08T18:39:36.113Z,29.87
2019-02-08T18:41:41.629Z,30.68
2019-02-08T18:43:47.081Z,29.42
2019-02-08T18:45:52.496Z,39.10
2019-02-08T18:47:58.477Z,27.67
2019-02-08T18:50:04.159Z,30.62
2019-02-08T18:52:09.726Z,28.75
2019-02-08T18:54:15.718Z,34.30
2019-02-08T18:56:21.423Z,30.60
2019-02-08T18:58:27.401Z,33.65
2019-02-08T19:00:40.010Z,31.73
2019-02-08T19:02:42.701Z,29.00
2019-02-08T19:04:48.524Z,28.23
2019-02-08T19:06:53.953Z,31.07
2019-02-08T19:08:59.449Z,30.48
2019-02-08T19:11:04.856Z,29.07
2019-02-08T19:13:10.270Z,26.17
2019-02-08T19:15:17.222Z,22.82
2019-02-08T19:17:22.657Z,28.50
2019-02-08T19:19:30.245Z,24.57
2019-02-08T19:21:35.655Z,28.12
2019-02-08T19:23:41.449Z,26.15
2019-02-08T19:25:47.123Z,25.75
2019-02-08T19:27:52.536Z,27.75
2019-02-08T19:29:58.986Z,31.70
2019-02-08T19:32:04.506Z,32.90
2019-02-08T19:34:10.577Z,28.60
2019-02-08T19:36:16.820Z,24.77
2019-02-08T19:38:28.218Z,29.05
2019-02-08T19:40:37.473Z,29.85
2019-02-08T19:42:46.227Z,32.98
2019-02-08T19:44:55.379Z,33.02
2019-02-08T19:47:03.904Z,35.48
2019-02-08T19:49:10.555Z,32.78
2019-02-08T19:51:18.022Z,29.02
2019-02-08T19:53:24.481Z,33.70
2019-02-08T19:55:32.290Z,27.10
2019-02-08T19:57:38.190Z,32.05
2019-02-08T19:59:43.978Z,30.20
2019-02-08T20:01:51.045Z,39.35
2019-02-08T20:04:00.199Z,32.58
2019-02-08T20:06:06.152Z,38.13
2019-02-08T20:08:13.849Z,46.05
2019-02-08T20:10:22.559Z,108.17
2019-02-08T20:12:28.189Z,44.85
2019-02-08T20:14:33.952Z,37.10
2019-02-08T20:16:41.266Z,43.60
2019-02-08T20:18:46.950Z,61.55
2019-02-08T20:20:53.151Z,37.25
2019-02-08T20:22:58.960Z,44.67
2019-02-08T20:25:07.093Z,44.18
2019-02-08T20:27:15.383Z,53.78
2019-02-08T20:29:23.616Z,54.53
2019-02-08T20:31:29.327Z,53.40
2019-02-08T20:33:34.766Z,43.52
2019-02-08T20:35:40.651Z,46.75
2019-02-08T20:37:47.941Z,43.25
2019-02-08T20:39:54.468Z,38.55
2019-02-08T20:42:01.716Z,39.35
2019-02-08T20:44:14.831Z,35.40
2019-02-08T20:46:21.333Z,37.65
2019-02-08T20:48:27.136Z,39.65
2019-02-08T20:50:36.646Z,34.63
2019-02-08T20:52:46.074Z,45.70
2019-02-08T20:54:54.302Z,52.05
2019-02-08T20:57:01.033Z,47.60
2019-02-08T20:59:06.889Z,59.03
2019-02-08T21:01:22.001Z,44.30
2019-02-08T21:03:28.113Z,34.75
2019-02-08T21:05:34.029Z,34.50
2019-02-08T21:07:47.653Z,39.80
2019-02-08T21:09:53.686Z,36.68
2019-02-08T21:12:03.531Z,35.05
2019-02-08T21:14:09.366Z,36.60
2019-02-08T21:16:18.498Z,32.45
2019-02-08T21:18:24.576Z,33.80
2019-02-08T21:20:33.477Z,31.23
2019-02-08T21:22:39.607Z,34.70
2019-02-08T21:24:45.132Z,34.35
2019-02-08T21:26:54.364Z,39.88
2019-02-08T21:28:59.693Z,28.73
2019-02-08T21:31:05.359Z,38.58
2019-02-08T21:33:14.690Z,33.80
2019-02-08T21:35:20.381Z,31.27
2019-02-08T21:37:25.976Z,31.40
2019-02-08T21:39:34.124Z,28.07
2019-02-08T21:41:43.927Z,32.50
2019-02-08T21:43:50.067Z,29.72
2019-02-08T21:45:58.741Z,42.05
2019-02-08T21:48:06.710Z,31.25
2019-02-08T21:50:14.042Z,34.58
2019-02-08T21:52:27.407Z,35.83
2019-02-08T21:54:33.718Z,28.98
2019-02-08T21:56:39.115Z,35.35
2019-02-08T21:58:44.705Z,39.30
2019-02-08T22:00:50.831Z,32.33
2019-02-08T22:02:57.168Z,36.60
2019-02-08T22:05:10.792Z,30.10
2019-02-08T22:07:16.307Z,34.23
2019-02-08T22:09:21.718Z,33.33
2019-02-08T22:11:28.674Z,30.55
2019-02-08T22:13:34.090Z,30.50
2019-02-08T22:15:39.698Z,31.55
2019-02-08T22:17:45.117Z,31.23
2019-02-08T22:19:50.783Z,34.20
2019-02-08T22:21:56.274Z,31.70
2019-02-08T22:24:02.817Z,44.70
2019-02-08T22:26:08.559Z,30.37
2019-02-08T22:28:14.310Z,26.57
2019-02-08T22:30:26.117Z,31.23
2019-02-08T22:32:32.737Z,26.02
2019-02-08T22:34:38.241Z,30.15
2019-02-08T22:36:43.813Z,27.35
2019-02-08T22:38:49.230Z,25.27
2019-02-08T22:40:55.052Z,25.35
2019-02-08T22:43:01.929Z,25.40
2019-02-08T22:45:12.125Z,33.33
2019-02-08T22:47:17.572Z,26.12
2019-02-08T22:49:24.765Z,27.67
2019-02-08T22:51:30.208Z,29.80
2019-02-08T22:53:35.972Z,27.10
2019-02-08T22:55:43.263Z,24.87
2019-02-08T22:57:48.836Z,22.48
2019-02-08T22:59:54.262Z,22.87
2019-02-08T23:01:59.897Z,24.87
2019-02-08T23:04:07.077Z,25.52
2019-02-08T23:06:13.585Z,20.48
2019-02-08T23:08:21.047Z,20.43
2019-02-08T23:10:26.717Z,21.85
2019-02-08T23:12:32.442Z,22.90
2019-02-08T23:14:37.910Z,21.97
2019-02-08T23:16:43.752Z,20.25
2019-02-08T23:18:49.185Z,28.12
2019-02-08T23:20:56.889Z,20.43
2019-02-08T23:23:02.479Z,21.50
2019-02-08T23:25:08.309Z,29.40
2019-02-08T23:27:14.110Z,25.30
2019-02-08T23:29:19.681Z,20.68
2019-02-08T23:31:25.645Z,23.77
2019-02-08T23:33:31.333Z,22.80
2019-02-08T23:35:42.834Z,15.45
2019-02-08T23:37:44.386Z,22.45
2019-02-08T23:39:49.817Z,24.98
2019-02-08T23:41:55.269Z,21.60
2019-02-08T23:44:01.486Z,21.52
2019-02-08T23:46:09.511Z,20.50
2019-02-08T23:48:15.625Z,22.87
2019-02-08T23:50:21.053Z,21.42
2019-02-08T23:52:26.741Z,24.10
2019-02-08T23:54:32.689Z,24.15
2019-02-08T23:56:38.686Z,23.10
2019-02-08T23:58:44.894Z,24.37
